sensor_id;sensor_type;location;lat;lon;timestamp;P1;durP1;ratioP1;P2;durP2;ratioP2
62071;SDS011;48031;48.542;13.232;2023-05-16T00:02:13;6.53;;;4.47;;
62071;SDS011;48031;48.542;13.232;2023-05-16T00:06:16;5.47;;;3.60;;
62071;SDS011;48031;48.542;13.232;2023-05-16T00:10:18;5.72;;;4.18;;
62071;SDS011;48031;48.542;13.232;2023-05-16T00:14:20;7.05;;;3.53;;
62071;SDS011;48031;48.542;13.232;2023-05-16T00:18:22;6.70;;;4.38;;
62071;SDS011;48031;48.542;13.232;2023-05-16T00:22:23;10.40;;;4.72;;
62071;SDS011;48031;48.542;13.232;2023-05-16T00:26:25;7.40;;;4.88;;
62071;SDS011;48031;48.542;13.232;2023-05-16T00:30:28;6.60;;;4.57;;
62071;SDS011;48031;48.542;13.232;2023-05-16T00:34:29;8.25;;;4.82;;
62071;SDS011;48031;48.542;13.232;2023-05-16T00:38:31;8.85;;;4.55;;
62071;SDS011;48031;48.542;13.232;2023-05-16T00:42:33;6.93;;;4.68;;
62071;SDS011;48031;48.542;13.232;2023-05-16T00:46:35;9.70;;;6.45;;
62071;SDS011;48031;48.542;13.232;2023-05-16T00:50:37;12.35;;;6.85;;
62071;SDS011;48031;48.542;13.232;2023-05-16T00:54:39;11.15;;;6.70;;
62071;SDS011;48031;48.542;13.232;2023-05-16T00:58:41;11.52;;;6.78;;
62071;SDS011;48031;48.542;13.232;2023-05-16T01:02:43;9.05;;;5.75;;
62071;SDS011;48031;48.542;13.232;2023-05-16T01:06:45;9.52;;;5.97;;
62071;SDS011;48031;48.542;13.232;2023-05-16T01:15:09;10.35;;;6.32;;
62071;SDS011;48031;48.542;13.232;2023-05-16T01:28:04;9.88;;;5.90;;
62071;SDS011;48031;48.542;13.232;2023-05-16T01:32:07;9.13;;;5.72;;
62071;SDS011;48031;48.542;13.232;2023-05-16T01:36:16;12.25;;;5.57;;
62071;SDS011;48031;48.542;13.232;2023-05-16T01:40:25;11.15;;;5.78;;
62071;SDS011;48031;48.542;13.232;2023-05-16T01:44:49;13.63;;;5.97;;
62071;SDS011;48031;48.542;13.232;2023-05-16T01:53:18;10.88;;;5.75;;
62071;SDS011;48031;48.542;13.232;2023-05-16T01:57:24;11.90;;;6.28;;
62071;SDS011;48031;48.542;13.232;2023-05-16T02:01:29;9.13;;;5.82;;
62071;SDS011;48031;48.542;13.232;2023-05-16T02:05:31;9.73;;;6.10;;
62071;SDS011;48031;48.542;13.232;2023-05-16T02:09:33;8.15;;;5.45;;
62071;SDS011;48031;48.542;13.232;2023-05-16T02:13:35;8.63;;;5.75;;
62071;SDS011;48031;48.542;13.232;2023-05-16T02:17:37;7.63;;;5.20;;
62071;SDS011;48031;48.542;13.232;2023-05-16T02:21:39;14.23;;;6.18;;
62071;SDS011;48031;48.542;13.232;2023-05-16T02:25:41;9.75;;;5.60;;
62071;SDS011;48031;48.542;13.232;2023-05-16T02:29:43;11.25;;;5.85;;
62071;SDS011;48031;48.542;13.232;2023-05-16T02:33:45;14.43;;;5.20;;
62071;SDS011;48031;48.542;13.232;2023-05-16T02:37:47;19.33;;;5.20;;
62071;SDS011;48031;48.542;13.232;2023-05-16T02:41:48;26.58;;;4.85;;
62071;SDS011;48031;48.542;13.232;2023-05-16T02:45:50;7.45;;;4.38;;
62071;SDS011;48031;48.542;13.232;2023-05-16T02:49:53;6.07;;;4.30;;
62071;SDS011;48031;48.542;13.232;2023-05-16T02:53:55;6.57;;;4.80;;
62071;SDS011;48031;48.542;13.232;2023-05-16T02:58:01;11.93;;;4.88;;
62071;SDS011;48031;48.542;13.232;2023-05-16T03:02:03;10.05;;;4.40;;
62071;SDS011;48031;48.542;13.232;2023-05-16T03:06:07;7.50;;;4.38;;
62071;SDS011;48031;48.542;13.232;2023-05-16T03:10:09;6.63;;;4.53;;
62071;SDS011;48031;48.542;13.232;2023-05-16T03:14:12;6.53;;;4.35;;
62071;SDS011;48031;48.542;13.232;2023-05-16T03:18:14;6.10;;;4.38;;
62071;SDS011;48031;48.542;13.232;2023-05-16T03:22:16;7.72;;;4.95;;
62071;SDS011;48031;48.542;13.232;2023-05-16T03:26:18;6.45;;;4.72;;
62071;SDS011;48031;48.542;13.232;2023-05-16T03:30:23;6.10;;;4.50;;
62071;SDS011;48031;48.542;13.232;2023-05-16T03:34:26;7.40;;;4.65;;
62071;SDS011;48031;48.542;13.232;2023-05-16T03:38:29;8.60;;;5.50;;
62071;SDS011;48031;48.542;13.232;2023-05-16T03:42:31;7.68;;;4.82;;
62071;SDS011;48031;48.542;13.232;2023-05-16T03:46:34;18.15;;;4.95;;
62071;SDS011;48031;48.542;13.232;2023-05-16T03:50:37;12.15;;;4.57;;
62071;SDS011;48031;48.542;13.232;2023-05-16T03:54:41;20.80;;;5.10;;
62071;SDS011;48031;48.542;13.232;2023-05-16T03:58:43;6.50;;;4.57;;
62071;SDS011;48031;48.542;13.232;2023-05-16T04:02:45;8.50;;;4.72;;
62071;SDS011;48031;48.542;13.232;2023-05-16T04:06:48;11.18;;;4.20;;
62071;SDS011;48031;48.542;13.232;2023-05-16T04:10:50;17.75;;;5.07;;
62071;SDS011;48031;48.542;13.232;2023-05-16T04:14:52;56.00;;;4.82;;
62071;SDS011;48031;48.542;13.232;2023-05-16T04:18:55;20.60;;;4.50;;
62071;SDS011;48031;48.542;13.232;2023-05-16T04:22:57;30.23;;;5.10;;
62071;SDS011;48031;48.542;13.232;2023-05-16T04:26:59;64.55;;;4.65;;
62071;SDS011;48031;48.542;13.232;2023-05-16T04:31:01;35.35;;;4.63;;
62071;SDS011;48031;48.542;13.232;2023-05-16T04:35:04;11.60;;;4.70;;
62071;SDS011;48031;48.542;13.232;2023-05-16T04:39:06;30.42;;;4.00;;
62071;SDS011;48031;48.542;13.232;2023-05-16T04:43:09;34.08;;;3.97;;
62071;SDS011;48031;48.542;13.232;2023-05-16T04:47:11;18.33;;;4.68;;
62071;SDS011;48031;48.542;13.232;2023-05-16T04:51:13;14.68;;;4.47;;
62071;SDS011;48031;48.542;13.232;2023-05-16T04:55:15;17.35;;;3.85;;
62071;SDS011;48031;48.542;13.232;2023-05-16T04:59:18;22.13;;;5.20;;
62071;SDS011;48031;48.542;13.232;2023-05-16T05:03:20;16.13;;;5.45;;
62071;SDS011;48031;48.542;13.232;2023-05-16T05:07:22;8.55;;;4.60;;
62071;SDS011;48031;48.542;13.232;2023-05-16T05:11:24;14.15;;;5.18;;
62071;SDS011;48031;48.542;13.232;2023-05-16T05:15:27;16.20;;;5.07;;
62071;SDS011;48031;48.542;13.232;2023-05-16T05:19:29;20.90;;;5.65;;
62071;SDS011;48031;48.542;13.232;2023-05-16T05:23:31;14.55;;;5.38;;
62071;SDS011;48031;48.542;13.232;2023-05-16T05:27:35;14.95;;;4.68;;
62071;SDS011;48031;48.542;13.232;2023-05-16T05:31:37;37.92;;;5.55;;
62071;SDS011;48031;48.542;13.232;2023-05-16T05:35:38;13.73;;;5.40;;
62071;SDS011;48031;48.542;13.232;2023-05-16T05:39:40;12.98;;;4.25;;
62071;SDS011;48031;48.542;13.232;2023-05-16T05:43:42;6.05;;;4.05;;
62071;SDS011;48031;48.542;13.232;2023-05-16T05:47:44;6.78;;;4.28;;
62071;SDS011;48031;48.542;13.232;2023-05-16T05:51:46;5.47;;;3.92;;
62071;SDS011;48031;48.542;13.232;2023-05-16T05:55:48;6.28;;;4.55;;
62071;SDS011;48031;48.542;13.232;2023-05-16T05:59:50;9.27;;;4.60;;
62071;SDS011;48031;48.542;13.232;2023-05-16T06:03:51;6.28;;;4.28;;
62071;SDS011;48031;48.542;13.232;2023-05-16T06:07:53;7.05;;;4.57;;
62071;SDS011;48031;48.542;13.232;2023-05-16T06:11:55;7.43;;;4.05;;
62071;SDS011;48031;48.542;13.232;2023-05-16T06:15:57;9.45;;;5.13;;
62071;SDS011;48031;48.542;13.232;2023-05-16T06:19:58;5.88;;;4.10;;
62071;SDS011;48031;48.542;13.232;2023-05-16T06:24:00;7.93;;;5.20;;
62071;SDS011;48031;48.542;13.232;2023-05-16T06:28:02;9.32;;;5.75;;
62071;SDS011;48031;48.542;13.232;2023-05-16T06:32:04;7.85;;;4.75;;
62071;SDS011;48031;48.542;13.232;2023-05-16T06:36:06;8.40;;;4.57;;
62071;SDS011;48031;48.542;13.232;2023-05-16T06:40:08;8.90;;;5.53;;
62071;SDS011;48031;48.542;13.232;2023-05-16T06:44:10;9.18;;;5.03;;
62071;SDS011;48031;48.542;13.232;2023-05-16T06:48:12;9.00;;;5.45;;
62071;SDS011;48031;48.542;13.232;2023-05-16T06:52:15;10.73;;;6.43;;
62071;SDS011;48031;48.542;13.232;2023-05-16T06:56:17;8.73;;;5.80;;
62071;SDS011;48031;48.542;13.232;2023-05-16T07:00:19;9.80;;;6.18;;
62071;SDS011;48031;48.542;13.232;2023-05-16T07:04:21;9.48;;;5.90;;
62071;SDS011;48031;48.542;13.232;2023-05-16T07:08:23;8.32;;;5.15;;
62071;SDS011;48031;48.542;13.232;2023-05-16T07:12:25;9.65;;;6.57;;
62071;SDS011;48031;48.542;13.232;2023-05-16T07:16:27;10.10;;;6.20;;
62071;SDS011;48031;48.542;13.232;2023-05-16T07:20:29;10.38;;;5.75;;
62071;SDS011;48031;48.542;13.232;2023-05-16T07:24:31;9.27;;;6.22;;
62071;SDS011;48031;48.542;13.232;2023-05-16T07:28:33;10.70;;;6.78;;
62071;SDS011;48031;48.542;13.232;2023-05-16T07:32:34;10.13;;;6.50;;
62071;SDS011;48031;48.542;13.232;2023-05-16T07:36:36;12.05;;;7.60;;
62071;SDS011;48031;48.542;13.232;2023-05-16T07:40:39;10.73;;;7.43;;
62071;SDS011;48031;48.542;13.232;2023-05-16T07:44:40;10.93;;;6.90;;
62071;SDS011;48031;48.542;13.232;2023-05-16T07:48:42;13.55;;;6.60;;
62071;SDS011;48031;48.542;13.232;2023-05-16T07:52:44;9.65;;;6.28;;
62071;SDS011;48031;48.542;13.232;2023-05-16T07:56:46;9.32;;;6.72;;
62071;SDS011;48031;48.542;13.232;2023-05-16T08:00:48;10.00;;;6.60;;
62071;SDS011;48031;48.542;13.232;2023-05-16T08:04:51;8.77;;;5.85;;
62071;SDS011;48031;48.542;13.232;2023-05-16T08:08:52;7.85;;;5.38;;
62071;SDS011;48031;48.542;13.232;2023-05-16T08:12:55;14.80;;;7.68;;
62071;SDS011;48031;48.542;13.232;2023-05-16T08:16:59;12.82;;;7.47;;
62071;SDS011;48031;48.542;13.232;2023-05-16T08:21:01;9.27;;;6.30;;
62071;SDS011;48031;48.542;13.232;2023-05-16T08:25:03;8.57;;;5.20;;
62071;SDS011;48031;48.542;13.232;2023-05-16T08:29:06;10.75;;;6.32;;
62071;SDS011;48031;48.542;13.232;2023-05-16T08:33:07;11.32;;;6.93;;
62071;SDS011;48031;48.542;13.232;2023-05-16T08:37:10;8.18;;;5.55;;
62071;SDS011;48031;48.542;13.232;2023-05-16T08:41:12;8.60;;;6.20;;
62071;SDS011;48031;48.542;13.232;2023-05-16T08:45:14;11.90;;;7.25;;
62071;SDS011;48031;48.542;13.232;2023-05-16T08:49:16;8.60;;;6.20;;
62071;SDS011;48031;48.542;13.232;2023-05-16T08:53:22;11.50;;;7.80;;
62071;SDS011;48031;48.542;13.232;2023-05-16T08:57:30;10.20;;;6.28;;
62071;SDS011;48031;48.542;13.232;2023-05-16T09:01:33;7.60;;;5.32;;
62071;SDS011;48031;48.542;13.232;2023-05-16T09:05:36;10.13;;;6.97;;
62071;SDS011;48031;48.542;13.232;2023-05-16T09:09:38;9.63;;;6.85;;
62071;SDS011;48031;48.542;13.232;2023-05-16T09:13:41;10.07;;;6.40;;
62071;SDS011;48031;48.542;13.232;2023-05-16T09:17:43;8.95;;;6.20;;
62071;SDS011;48031;48.542;13.232;2023-05-16T09:21:47;10.65;;;7.63;;
62071;SDS011;48031;48.542;13.232;2023-05-16T09:25:51;9.43;;;6.68;;
62071;SDS011;48031;48.542;13.232;2023-05-16T09:29:53;8.32;;;6.03;;
62071;SDS011;48031;48.542;13.232;2023-05-16T09:33:58;9.32;;;6.70;;
62071;SDS011;48031;48.542;13.232;2023-05-16T09:38:00;10.77;;;6.90;;
62071;SDS011;48031;48.542;13.232;2023-05-16T09:42:02;12.10;;;7.50;;
62071;SDS011;48031;48.542;13.232;2023-05-16T09:46:04;7.65;;;5.78;;
62071;SDS011;48031;48.542;13.232;2023-05-16T09:50:06;9.73;;;6.68;;
62071;SDS011;48031;48.542;13.232;2023-05-16T09:54:08;9.32;;;6.68;;
62071;SDS011;48031;48.542;13.232;2023-05-16T09:58:10;12.82;;;8.00;;
62071;SDS011;48031;48.542;13.232;2023-05-16T10:02:12;8.82;;;6.07;;
62071;SDS011;48031;48.542;13.232;2023-05-16T10:06:14;9.70;;;6.75;;
62071;SDS011;48031;48.542;13.232;2023-05-16T10:10:17;9.10;;;6.55;;
62071;SDS011;48031;48.542;13.232;2023-05-16T10:14:20;6.43;;;5.18;;
62071;SDS011;48031;48.542;13.232;2023-05-16T10:18:23;8.93;;;6.10;;
62071;SDS011;48031;48.542;13.232;2023-05-16T10:22:34;9.93;;;6.30;;
62071;SDS011;48031;48.542;13.232;2023-05-16T10:26:36;7.17;;;5.13;;
62071;SDS011;48031;48.542;13.232;2023-05-16T10:30:42;6.15;;;4.70;;
62071;SDS011;48031;48.542;13.232;2023-05-16T10:34:47;7.47;;;5.65;;
62071;SDS011;48031;48.542;13.232;2023-05-16T10:38:49;9.18;;;5.70;;
62071;SDS011;48031;48.542;13.232;2023-05-16T10:46:58;9.02;;;5.22;;
62071;SDS011;48031;48.542;13.232;2023-05-16T10:51:01;6.22;;;4.40;;
62071;SDS011;48031;48.542;13.232;2023-05-16T10:55:05;6.85;;;5.30;;
62071;SDS011;48031;48.542;13.232;2023-05-16T10:59:22;6.55;;;5.00;;
62071;SDS011;48031;48.542;13.232;2023-05-16T11:03:25;6.47;;;5.22;;
62071;SDS011;48031;48.542;13.232;2023-05-16T11:07:31;6.07;;;4.85;;
62071;SDS011;48031;48.542;13.232;2023-05-16T11:15:49;5.53;;;4.10;;
62071;SDS011;48031;48.542;13.232;2023-05-16T11:19:57;8.48;;;5.90;;
62071;SDS011;48031;48.542;13.232;2023-05-16T11:28:31;8.48;;;5.43;;
62071;SDS011;48031;48.542;13.232;2023-05-16T11:32:33;6.85;;;5.32;;
62071;SDS011;48031;48.542;13.232;2023-05-16T11:36:37;6.68;;;5.28;;
62071;SDS011;48031;48.542;13.232;2023-05-16T11:40:41;7.32;;;5.18;;
62071;SDS011;48031;48.542;13.232;2023-05-16T11:44:44;9.45;;;5.63;;
62071;SDS011;48031;48.542;13.232;2023-05-16T11:48:46;6.38;;;5.15;;
62071;SDS011;48031;48.542;13.232;2023-05-16T11:52:49;4.93;;;4.22;;
62071;SDS011;48031;48.542;13.232;2023-05-16T11:56:57;7.07;;;5.78;;
62071;SDS011;48031;48.542;13.232;2023-05-16T12:01:00;5.03;;;4.07;;
62071;SDS011;48031;48.542;13.232;2023-05-16T12:05:06;5.50;;;4.82;;
62071;SDS011;48031;48.542;13.232;2023-05-16T12:09:11;5.07;;;4.22;;
62071;SDS011;48031;48.542;13.232;2023-05-16T12:13:18;5.57;;;4.00;;
62071;SDS011;48031;48.542;13.232;2023-05-16T12:17:21;7.57;;;6.40;;
62071;SDS011;48031;48.542;13.232;2023-05-16T12:21:23;5.68;;;4.47;;
62071;SDS011;48031;48.542;13.232;2023-05-16T12:25:26;8.05;;;5.70;;
62071;SDS011;48031;48.542;13.232;2023-05-16T12:29:31;6.72;;;5.22;;
62071;SDS011;48031;48.542;13.232;2023-05-16T12:33:35;8.32;;;5.55;;
62071;SDS011;48031;48.542;13.232;2023-05-16T12:37:37;6.55;;;4.38;;
62071;SDS011;48031;48.542;13.232;2023-05-16T12:41:40;5.25;;;4.40;;
62071;SDS011;48031;48.542;13.232;2023-05-16T12:45:53;10.48;;;4.75;;
62071;SDS011;48031;48.542;13.232;2023-05-16T12:49:56;7.95;;;5.63;;
62071;SDS011;48031;48.542;13.232;2023-05-16T12:54:05;6.57;;;4.93;;
62071;SDS011;48031;48.542;13.232;2023-05-16T12:58:12;5.78;;;4.32;;
62071;SDS011;48031;48.542;13.232;2023-05-16T13:02:14;9.80;;;6.50;;
62071;SDS011;48031;48.542;13.232;2023-05-16T13:06:17;7.07;;;5.22;;
62071;SDS011;48031;48.542;13.232;2023-05-16T13:10:18;11.38;;;7.78;;
62071;SDS011;48031;48.542;13.232;2023-05-16T13:14:20;10.60;;;7.10;;
62071;SDS011;48031;48.542;13.232;2023-05-16T13:18:23;6.07;;;5.18;;
62071;SDS011;48031;48.542;13.232;2023-05-16T13:22:25;6.65;;;5.10;;
62071;SDS011;48031;48.542;13.232;2023-05-16T13:26:26;7.55;;;5.47;;
62071;SDS011;48031;48.542;13.232;2023-05-16T13:30:28;7.72;;;5.55;;
62071;SDS011;48031;48.542;13.232;2023-05-16T13:34:31;6.78;;;5.53;;
62071;SDS011;48031;48.542;13.232;2023-05-16T13:38:32;5.60;;;4.72;;
62071;SDS011;48031;48.542;13.232;2023-05-16T13:42:35;13.70;;;9.57;;
62071;SDS011;48031;48.542;13.232;2023-05-16T13:46:37;11.45;;;8.50;;
62071;SDS011;48031;48.542;13.232;2023-05-16T13:50:39;9.95;;;5.75;;
62071;SDS011;48031;48.542;13.232;2023-05-16T13:54:45;12.18;;;6.97;;
62071;SDS011;48031;48.542;13.232;2023-05-16T13:58:47;10.05;;;6.72;;
62071;SDS011;48031;48.542;13.232;2023-05-16T14:03:06;6.68;;;4.97;;
62071;SDS011;48031;48.542;13.232;2023-05-16T14:07:08;7.85;;;6.13;;
62071;SDS011;48031;48.542;13.232;2023-05-16T14:11:10;7.35;;;5.40;;
62071;SDS011;48031;48.542;13.232;2023-05-16T14:15:11;8.32;;;6.43;;
62071;SDS011;48031;48.542;13.232;2023-05-16T14:19:13;7.47;;;6.00;;
62071;SDS011;48031;48.542;13.232;2023-05-16T14:23:19;8.68;;;6.28;;
62071;SDS011;48031;48.542;13.232;2023-05-16T14:27:21;6.15;;;4.72;;
62071;SDS011;48031;48.542;13.232;2023-05-16T14:31:23;6.72;;;5.22;;
62071;SDS011;48031;48.542;13.232;2023-05-16T14:35:25;6.65;;;5.00;;
62071;SDS011;48031;48.542;13.232;2023-05-16T14:39:27;8.30;;;6.32;;
62071;SDS011;48031;48.542;13.232;2023-05-16T14:43:29;10.57;;;6.63;;
62071;SDS011;48031;48.542;13.232;2023-05-16T14:47:31;9.10;;;6.53;;
62071;SDS011;48031;48.542;13.232;2023-05-16T14:51:33;7.93;;;6.18;;
62071;SDS011;48031;48.542;13.232;2023-05-16T14:55:35;5.03;;;4.30;;
62071;SDS011;48031;48.542;13.232;2023-05-16T14:59:37;7.97;;;5.65;;
62071;SDS011;48031;48.542;13.232;2023-05-16T15:03:38;7.15;;;4.60;;
62071;SDS011;48031;48.542;13.232;2023-05-16T15:07:55;4.95;;;4.32;;
62071;SDS011;48031;48.542;13.232;2023-05-16T15:11:58;7.82;;;5.10;;
62071;SDS011;48031;48.542;13.232;2023-05-16T15:16:00;6.70;;;5.13;;
62071;SDS011;48031;48.542;13.232;2023-05-16T15:20:02;7.72;;;4.90;;
62071;SDS011;48031;48.542;13.232;2023-05-16T15:24:05;8.02;;;5.97;;
62071;SDS011;48031;48.542;13.232;2023-05-16T15:28:08;6.50;;;5.38;;
62071;SDS011;48031;48.542;13.232;2023-05-16T15:32:10;6.72;;;5.50;;
62071;SDS011;48031;48.542;13.232;2023-05-16T15:36:14;7.60;;;6.15;;
62071;SDS011;48031;48.542;13.232;2023-05-16T15:40:15;7.25;;;5.65;;
62071;SDS011;48031;48.542;13.232;2023-05-16T15:44:18;10.43;;;6.40;;
62071;SDS011;48031;48.542;13.232;2023-05-16T15:48:19;8.18;;;5.70;;
62071;SDS011;48031;48.542;13.232;2023-05-16T15:52:22;10.52;;;6.80;;
62071;SDS011;48031;48.542;13.232;2023-05-16T15:56:23;9.55;;;7.38;;
62071;SDS011;48031;48.542;13.232;2023-05-16T16:00:25;14.30;;;7.82;;
62071;SDS011;48031;48.542;13.232;2023-05-16T16:04:27;7.82;;;6.18;;
62071;SDS011;48031;48.542;13.232;2023-05-16T16:08:29;8.70;;;5.38;;
62071;SDS011;48031;48.542;13.232;2023-05-16T16:12:31;10.23;;;6.80;;
62071;SDS011;48031;48.542;13.232;2023-05-16T16:16:32;8.40;;;6.60;;
62071;SDS011;48031;48.542;13.232;2023-05-16T16:20:34;8.07;;;6.47;;
62071;SDS011;48031;48.542;13.232;2023-05-16T16:24:36;8.77;;;5.63;;
62071;SDS011;48031;48.542;13.232;2023-05-16T16:28:38;8.32;;;6.20;;
62071;SDS011;48031;48.542;13.232;2023-05-16T16:32:40;8.80;;;6.35;;
62071;SDS011;48031;48.542;13.232;2023-05-16T16:36:41;7.47;;;4.63;;
62071;SDS011;48031;48.542;13.232;2023-05-16T16:40:43;11.68;;;6.82;;
62071;SDS011;48031;48.542;13.232;2023-05-16T16:44:45;10.02;;;6.63;;
62071;SDS011;48031;48.542;13.232;2023-05-16T16:48:47;10.45;;;6.65;;
62071;SDS011;48031;48.542;13.232;2023-05-16T16:52:50;10.13;;;6.60;;
62071;SDS011;48031;48.542;13.232;2023-05-16T16:56:52;9.00;;;5.93;;
62071;SDS011;48031;48.542;13.232;2023-05-16T17:00:54;9.77;;;6.85;;
62071;SDS011;48031;48.542;13.232;2023-05-16T17:04:55;8.13;;;6.25;;
62071;SDS011;48031;48.542;13.232;2023-05-16T17:08:57;10.00;;;6.22;;
62071;SDS011;48031;48.542;13.232;2023-05-16T17:13:04;8.32;;;6.18;;
62071;SDS011;48031;48.542;13.232;2023-05-16T17:17:10;9.13;;;6.47;;
62071;SDS011;48031;48.542;13.232;2023-05-16T17:21:12;12.52;;;6.70;;
62071;SDS011;48031;48.542;13.232;2023-05-16T17:25:14;10.23;;;7.05;;
62071;SDS011;48031;48.542;13.232;2023-05-16T17:29:15;7.63;;;6.03;;
62071;SDS011;48031;48.542;13.232;2023-05-16T17:33:17;9.27;;;6.78;;
62071;SDS011;48031;48.542;13.232;2023-05-16T17:37:19;9.10;;;6.78;;
62071;SDS011;48031;48.542;13.232;2023-05-16T17:41:21;11.38;;;7.45;;
62071;SDS011;48031;48.542;13.232;2023-05-16T17:45:23;8.80;;;5.95;;
62071;SDS011;48031;48.542;13.232;2023-05-16T17:49:26;9.63;;;6.72;;
62071;SDS011;48031;48.542;13.232;2023-05-16T17:53:27;12.27;;;8.02;;
62071;SDS011;48031;48.542;13.232;2023-05-16T17:57:32;11.38;;;7.82;;
62071;SDS011;48031;48.542;13.232;2023-05-16T18:01:34;12.70;;;7.47;;
62071;SDS011;48031;48.542;13.232;2023-05-16T18:05:36;10.48;;;7.35;;
62071;SDS011;48031;48.542;13.232;2023-05-16T18:09:38;10.23;;;7.63;;
62071;SDS011;48031;48.542;13.232;2023-05-16T18:13:40;13.02;;;7.80;;
62071;SDS011;48031;48.542;13.232;2023-05-16T18:17:42;11.10;;;7.57;;
62071;SDS011;48031;48.542;13.232;2023-05-16T18:21:44;11.85;;;7.28;;
62071;SDS011;48031;48.542;13.232;2023-05-16T18:25:46;10.10;;;7.20;;
62071;SDS011;48031;48.542;13.232;2023-05-16T18:29:48;11.20;;;6.93;;
62071;SDS011;48031;48.542;13.232;2023-05-16T18:33:50;9.13;;;6.22;;
62071;SDS011;48031;48.542;13.232;2023-05-16T18:37:52;9.13;;;6.90;;
62071;SDS011;48031;48.542;13.232;2023-05-16T18:41:54;8.38;;;6.63;;
62071;SDS011;48031;48.542;13.232;2023-05-16T18:45:55;10.43;;;7.28;;
62071;SDS011;48031;48.542;13.232;2023-05-16T18:49:58;11.50;;;8.23;;
62071;SDS011;48031;48.542;13.232;2023-05-16T18:53:59;11.43;;;8.15;;
62071;SDS011;48031;48.542;13.232;2023-05-16T18:58:01;12.70;;;8.05;;
62071;SDS011;48031;48.542;13.232;2023-05-16T19:02:03;13.50;;;9.25;;
62071;SDS011;48031;48.542;13.232;2023-05-16T19:06:05;11.48;;;7.32;;
62071;SDS011;48031;48.542;13.232;2023-05-16T19:10:07;10.13;;;7.50;;
62071;SDS011;48031;48.542;13.232;2023-05-16T19:14:09;11.65;;;8.27;;
62071;SDS011;48031;48.542;13.232;2023-05-16T19:18:12;14.38;;;9.25;;
62071;SDS011;48031;48.542;13.232;2023-05-16T19:22:14;11.43;;;8.25;;
62071;SDS011;48031;48.542;13.232;2023-05-16T19:26:16;11.27;;;7.90;;
62071;SDS011;48031;48.542;13.232;2023-05-16T19:30:17;9.15;;;6.95;;
62071;SDS011;48031;48.542;13.232;2023-05-16T19:34:19;6.97;;;5.10;;
62071;SDS011;48031;48.542;13.232;2023-05-16T19:38:21;15.90;;;7.40;;
62071;SDS011;48031;48.542;13.232;2023-05-16T19:42:25;12.38;;;7.97;;
62071;SDS011;48031;48.542;13.232;2023-05-16T19:46:27;11.98;;;6.75;;
62071;SDS011;48031;48.542;13.232;2023-05-16T19:50:29;9.57;;;7.32;;
62071;SDS011;48031;48.542;13.232;2023-05-16T19:54:31;10.60;;;7.18;;
62071;SDS011;48031;48.542;13.232;2023-05-16T19:58:32;8.75;;;6.25;;
62071;SDS011;48031;48.542;13.232;2023-05-16T20:02:34;9.57;;;6.35;;
62071;SDS011;48031;48.542;13.232;2023-05-16T20:06:36;8.85;;;5.88;;
62071;SDS011;48031;48.542;13.232;2023-05-16T20:10:38;11.38;;;7.85;;
62071;SDS011;48031;48.542;13.232;2023-05-16T20:14:40;10.60;;;7.45;;
62071;SDS011;48031;48.542;13.232;2023-05-16T20:18:42;11.50;;;7.43;;
62071;SDS011;48031;48.542;13.232;2023-05-16T20:22:44;10.98;;;7.43;;
62071;SDS011;48031;48.542;13.232;2023-05-16T20:26:46;12.10;;;8.38;;
62071;SDS011;48031;48.542;13.232;2023-05-16T20:30:48;16.02;;;9.00;;
62071;SDS011;48031;48.542;13.232;2023-05-16T20:34:49;11.48;;;7.60;;
62071;SDS011;48031;48.542;13.232;2023-05-16T20:38:51;9.50;;;6.38;;
62071;SDS011;48031;48.542;13.232;2023-05-16T20:42:53;12.02;;;8.27;;
62071;SDS011;48031;48.542;13.232;2023-05-16T20:46:55;11.65;;;7.32;;
62071;SDS011;48031;48.542;13.232;2023-05-16T20:50:57;13.63;;;8.20;;
62071;SDS011;48031;48.542;13.232;2023-05-16T20:54:58;13.43;;;8.38;;
62071;SDS011;48031;48.542;13.232;2023-05-16T20:59:02;15.57;;;9.02;;
62071;SDS011;48031;48.542;13.232;2023-05-16T21:03:04;13.57;;;7.82;;
62071;SDS011;48031;48.542;13.232;2023-05-16T21:07:06;16.38;;;9.40;;
62071;SDS011;48031;48.542;13.232;2023-05-16T21:11:09;16.67;;;9.38;;
62071;SDS011;48031;48.542;13.232;2023-05-16T21:15:11;14.98;;;10.10;;
62071;SDS011;48031;48.542;13.232;2023-05-16T21:19:12;22.00;;;11.23;;
62071;SDS011;48031;48.542;13.232;2023-05-16T21:23:14;15.40;;;8.68;;
62071;SDS011;48031;48.542;13.232;2023-05-16T21:27:16;18.13;;;9.50;;
62071;SDS011;48031;48.542;13.232;2023-05-16T21:31:18;15.63;;;9.65;;
62071;SDS011;48031;48.542;13.232;2023-05-16T21:35:20;16.10;;;8.40;;
62071;SDS011;48031;48.542;13.232;2023-05-16T21:39:22;15.02;;;8.40;;
62071;SDS011;48031;48.542;13.232;2023-05-16T21:43:23;17.80;;;9.30;;
62071;SDS011;48031;48.542;13.232;2023-05-16T21:47:25;16.48;;;8.90;;
62071;SDS011;48031;48.542;13.232;2023-05-16T21:51:27;12.88;;;8.13;;
62071;SDS011;48031;48.542;13.232;2023-05-16T21:55:29;13.05;;;7.63;;
62071;SDS011;48031;48.542;13.232;2023-05-16T21:59:31;14.43;;;8.90;;
62071;SDS011;48031;48.542;13.232;2023-05-16T22:03:33;10.85;;;7.25;;
62071;SDS011;48031;48.542;13.232;2023-05-16T22:07:35;11.98;;;7.45;;
62071;SDS011;48031;48.542;13.232;2023-05-16T22:11:37;10.52;;;6.53;;
62071;SDS011;48031;48.542;13.232;2023-05-16T22:15:38;15.25;;;8.77;;
62071;SDS011;48031;48.542;13.232;2023-05-16T22:19:44;13.00;;;6.93;;
62071;SDS011;48031;48.542;13.232;2023-05-16T22:23:47;10.45;;;7.05;;
62071;SDS011;48031;48.542;13.232;2023-05-16T22:27:48;11.23;;;5.68;;
62071;SDS011;48031;48.542;13.232;2023-05-16T22:31:50;9.73;;;6.18;;
62071;SDS011;48031;48.542;13.232;2023-05-16T22:35:52;11.70;;;5.97;;
62071;SDS011;48031;48.542;13.232;2023-05-16T22:39:54;8.07;;;5.63;;
62071;SDS011;48031;48.542;13.232;2023-05-16T22:43:57;10.98;;;6.70;;
62071;SDS011;48031;48.542;13.232;2023-05-16T22:47:59;7.22;;;5.18;;
62071;SDS011;48031;48.542;13.232;2023-05-16T22:52:01;9.50;;;6.30;;
62071;SDS011;48031;48.542;13.232;2023-05-16T22:56:02;8.75;;;5.93;;
62071;SDS011;48031;48.542;13.232;2023-05-16T23:00:05;7.63;;;5.65;;
62071;SDS011;48031;48.542;13.232;2023-05-16T23:04:08;9.80;;;5.47;;
62071;SDS011;48031;48.542;13.232;2023-05-16T23:08:10;7.47;;;5.40;;
62071;SDS011;48031;48.542;13.232;2023-05-16T23:12:11;6.78;;;5.20;;
62071;SDS011;48031;48.542;13.232;2023-05-16T23:16:13;9.63;;;5.35;;
62071;SDS011;48031;48.542;13.232;2023-05-16T23:20:15;11.27;;;5.97;;
62071;SDS011;48031;48.542;13.232;2023-05-16T23:24:17;11.13;;;6.05;;
62071;SDS011;48031;48.542;13.232;2023-05-16T23:28:19;6.53;;;4.97;;
62071;SDS011;48031;48.542;13.232;2023-05-16T23:32:21;7.75;;;5.45;;
62071;SDS011;48031;48.542;13.232;2023-05-16T23:36:22;8.43;;;5.75;;
62071;SDS011;48031;48.542;13.232;2023-05-16T23:40:25;7.75;;;5.63;;
62071;SDS011;48031;48.542;13.232;2023-05-16T23:44:28;6.45;;;4.80;;
62071;SDS011;48031;48.542;13.232;2023-05-16T23:48:30;8.40;;;5.65;;
62071;SDS011;48031;48.542;13.232;2023-05-16T23:52:32;8.05;;;5.55;;
62071;SDS011;48031;48.542;13.232;2023-05-16T23:56:33;8.88;;;5.05;;
